sensor_id;sensor_type;location;lat;lon;timestamp;pressure;altitude;pressure_sealevel;temperature;humidity
11499;BME280;5806;48.748;9.278;2023-03-20T00:01:28;101359.05;;;10.40;73.74
11499;BME280;5806;48.748;9.278;2023-03-20T00:03:52;101355.95;;;10.46;73.33
11499;BME280;5806;48.748;9.278;2023-03-20T00:06:21;101368.09;;;10.32;72.98
11499;BME280;5806;48.748;9.278;2023-03-20T00:08:52;101369.20;;;10.24;73.62
11499;BME280;5806;48.748;9.278;2023-03-20T00:11:31;101360.69;;;10.14;73.16
11499;BME280;5806;48.748;9.278;2023-03-20T00:14:02;101376.59;;;10.33;73.31
11499;BME280;5806;48.748;9.278;2023-03-20T00:16:38;101371.77;;;10.44;72.35
11499;BME280;5806;48.748;9.278;2023-03-20T00:19:02;101375.59;;;10.27;72.94
11499;BME280;5806;48.748;9.278;2023-03-20T00:21:30;101376.89;;;10.34;73.42
11499;BME280;5806;48.748;9.278;2023-03-20T00:23:58;101373.44;;;10.20;73.73
11499;BME280;5806;48.748;9.278;2023-03-20T00:26:30;101368.75;;;10.27;73.54
11499;BME280;5806;48.748;9.278;2023-03-20T00:28:56;101369.97;;;10.22;73.92
11499;BME280;5806;48.748;9.278;2023-03-20T00:31:26;101371.34;;;10.22;73.57
11499;BME280;5806;48.748;9.278;2023-03-20T00:33:56;101375.52;;;10.25;74.19
11499;BME280;5806;48.748;9.278;2023-03-20T00:36:24;101381.83;;;10.25;73.89
11499;BME280;5806;48.748;9.278;2023-03-20T00:38:53;101385.87;;;10.32;73.64
11499;BME280;5806;48.748;9.278;2023-03-20T00:41:27;101385.95;;;10.34;73.85
11499;BME280;5806;48.748;9.278;2023-03-20T00:44:01;101390.93;;;10.28;74.13
11499;BME280;5806;48.748;9.278;2023-03-20T00:46:32;101394.07;;;10.32;73.44
11499;BME280;5806;48.748;9.278;2023-03-20T00:49:00;101386.53;;;10.27;74.27
11499;BME280;5806;48.748;9.278;2023-03-20T00:51:28;101392.72;;;10.16;74.14
11499;BME280;5806;48.748;9.278;2023-03-20T00:53:56;101394.63;;;10.16;74.73
11499;BME280;5806;48.748;9.278;2023-03-20T00:56:29;101396.73;;;10.13;74.75
11499;BME280;5806;48.748;9.278;2023-03-20T00:58:58;101394.08;;;10.16;74.56
11499;BME280;5806;48.748;9.278;2023-03-20T01:01:25;101395.12;;;10.06;74.66
11499;BME280;5806;48.748;9.278;2023-03-20T01:03:54;101400.05;;;10.06;74.60
11499;BME280;5806;48.748;9.278;2023-03-20T01:06:21;101406.38;;;10.00;74.61
11499;BME280;5806;48.748;9.278;2023-03-20T01:08:49;101412.13;;;10.08;74.36
11499;BME280;5806;48.748;9.278;2023-03-20T01:11:20;101406.99;;;10.09;73.80
11499;BME280;5806;48.748;9.278;2023-03-20T01:13:47;101413.22;;;10.16;74.09
11499;BME280;5806;48.748;9.278;2023-03-20T01:16:22;101409.89;;;10.14;74.04
11499;BME280;5806;48.748;9.278;2023-03-20T01:18:51;101406.30;;;10.13;72.01
11499;BME280;5806;48.748;9.278;2023-03-20T01:21:19;101403.19;;;10.10;73.70
11499;BME280;5806;48.748;9.278;2023-03-20T01:23:48;101399.63;;;10.03;74.02
11499;BME280;5806;48.748;9.278;2023-03-20T01:26:26;101402.27;;;10.07;72.73
11499;BME280;5806;48.748;9.278;2023-03-20T01:28:52;101397.12;;;10.01;73.69
11499;BME280;5806;48.748;9.278;2023-03-20T01:31:20;101394.08;;;10.16;72.55
11499;BME280;5806;48.748;9.278;2023-03-20T01:33:47;101391.27;;;10.13;73.30
11499;BME280;5806;48.748;9.278;2023-03-20T01:36:17;101398.32;;;9.96;73.69
11499;BME280;5806;48.748;9.278;2023-03-20T01:38:46;101395.94;;;9.91;73.61
11499;BME280;5806;48.748;9.278;2023-03-20T01:41:15;101392.94;;;9.99;73.64
11499;BME280;5806;48.748;9.278;2023-03-20T01:43:44;101398.92;;;9.98;73.86
11499;BME280;5806;48.748;9.278;2023-03-20T01:46:29;101400.53;;;9.97;73.76
11499;BME280;5806;48.748;9.278;2023-03-20T01:49:59;101394.05;;;9.91;73.94
11499;BME280;5806;48.748;9.278;2023-03-20T01:51:36;101394.00;;;9.98;74.03
11499;BME280;5806;48.748;9.278;2023-03-20T01:54:06;101381.55;;;9.93;73.58
11499;BME280;5806;48.748;9.278;2023-03-20T01:56:40;101387.83;;;9.93;74.26
11499;BME280;5806;48.748;9.278;2023-03-20T01:59:21;101382.12;;;9.86;73.25
11499;BME280;5806;48.748;9.278;2023-03-20T02:01:44;101380.12;;;9.84;74.30
11499;BME280;5806;48.748;9.278;2023-03-20T02:04:13;101382.20;;;9.88;73.94
11499;BME280;5806;48.748;9.278;2023-03-20T02:06:42;101374.80;;;9.95;73.97
11499;BME280;5806;48.748;9.278;2023-03-20T02:09:11;101378.95;;;9.89;73.93
11499;BME280;5806;48.748;9.278;2023-03-20T02:11:39;101379.38;;;9.86;74.26
11499;BME280;5806;48.748;9.278;2023-03-20T02:14:08;101389.03;;;9.88;74.32
11499;BME280;5806;48.748;9.278;2023-03-20T02:16:36;101385.45;;;9.88;74.49
11499;BME280;5806;48.748;9.278;2023-03-20T02:19:04;101384.08;;;9.88;73.79
11499;BME280;5806;48.748;9.278;2023-03-20T02:24:21;101381.89;;;9.72;74.66
11499;BME280;5806;48.748;9.278;2023-03-20T02:32:20;101395.20;;;9.77;75.22
11499;BME280;5806;48.748;9.278;2023-03-20T02:41:07;101397.06;;;9.83;74.82
11499;BME280;5806;48.748;9.278;2023-03-20T02:51:39;101371.45;;;9.78;75.17
11499;BME280;5806;48.748;9.278;2023-03-20T02:59:40;101389.24;;;9.87;72.54
11499;BME280;5806;48.748;9.278;2023-03-20T03:02:52;101382.99;;;9.95;72.17
11499;BME280;5806;48.748;9.278;2023-03-20T03:04:52;101376.08;;;9.93;73.40
11499;BME280;5806;48.748;9.278;2023-03-20T03:07:22;101368.97;;;9.85;73.10
11499;BME280;5806;48.748;9.278;2023-03-20T03:10:00;101380.61;;;9.90;72.41
11499;BME280;5806;48.748;9.278;2023-03-20T03:12:29;101388.39;;;9.86;72.64
11499;BME280;5806;48.748;9.278;2023-03-20T03:15:09;101396.92;;;9.87;72.97
11499;BME280;5806;48.748;9.278;2023-03-20T03:17:33;101388.91;;;9.77;72.72
11499;BME280;5806;48.748;9.278;2023-03-20T03:20:11;101393.53;;;9.76;73.12
11499;BME280;5806;48.748;9.278;2023-03-20T03:22:38;101396.64;;;9.80;72.59
11499;BME280;5806;48.748;9.278;2023-03-20T03:25:06;101397.45;;;9.71;73.09
11499;BME280;5806;48.748;9.278;2023-03-20T03:27:37;101407.19;;;9.76;73.03
11499;BME280;5806;48.748;9.278;2023-03-20T03:30:10;101401.09;;;9.74;73.08
11499;BME280;5806;48.748;9.278;2023-03-20T03:32:44;101405.52;;;9.75;73.14
11499;BME280;5806;48.748;9.278;2023-03-20T03:35:08;101408.25;;;9.75;72.76
11499;BME280;5806;48.748;9.278;2023-03-20T03:40:14;101416.31;;;9.79;72.71
11499;BME280;5806;48.748;9.278;2023-03-20T03:42:42;101406.13;;;9.77;72.20
11499;BME280;5806;48.748;9.278;2023-03-20T03:45:14;101385.52;;;9.66;71.92
11499;BME280;5806;48.748;9.278;2023-03-20T03:47:58;101378.56;;;9.54;72.90
11499;BME280;5806;48.748;9.278;2023-03-20T03:50:28;101359.70;;;9.46;72.57
11499;BME280;5806;48.748;9.278;2023-03-20T03:52:58;101365.16;;;9.62;72.71
11499;BME280;5806;48.748;9.278;2023-03-20T03:55:33;101364.80;;;9.52;73.07
11499;BME280;5806;48.748;9.278;2023-03-20T03:59:03;101375.03;;;9.47;73.88
11499;BME280;5806;48.748;9.278;2023-03-20T04:00:41;101373.58;;;9.45;74.15
11499;BME280;5806;48.748;9.278;2023-03-20T04:03:11;101357.80;;;9.31;74.99
11499;BME280;5806;48.748;9.278;2023-03-20T04:05:41;101369.31;;;9.33;74.66
11499;BME280;5806;48.748;9.278;2023-03-20T04:08:09;101377.47;;;9.40;75.00
11499;BME280;5806;48.748;9.278;2023-03-20T04:10:37;101386.37;;;9.44;74.54
11499;BME280;5806;48.748;9.278;2023-03-20T04:13:04;101381.81;;;9.38;74.48
11499;BME280;5806;48.748;9.278;2023-03-20T04:15:32;101381.52;;;9.31;74.88
11499;BME280;5806;48.748;9.278;2023-03-20T04:17:59;101396.36;;;9.41;75.08
11499;BME280;5806;48.748;9.278;2023-03-20T04:20:27;101404.13;;;9.44;74.48
11499;BME280;5806;48.748;9.278;2023-03-20T04:22:54;101403.36;;;9.53;73.68
11499;BME280;5806;48.748;9.278;2023-03-20T04:25:24;101397.50;;;9.65;71.98
11499;BME280;5806;48.748;9.278;2023-03-20T04:27:53;101392.73;;;9.54;71.30
11499;BME280;5806;48.748;9.278;2023-03-20T04:30:20;101404.77;;;9.62;71.86
11499;BME280;5806;48.748;9.278;2023-03-20T04:32:48;101408.73;;;9.66;71.08
11499;BME280;5806;48.748;9.278;2023-03-20T04:35:15;101414.45;;;9.58;70.74
11499;BME280;5806;48.748;9.278;2023-03-20T04:37:43;101401.42;;;9.75;70.26
11499;BME280;5806;48.748;9.278;2023-03-20T04:40:11;101404.29;;;9.71;71.01
11499;BME280;5806;48.748;9.278;2023-03-20T04:42:39;101400.84;;;9.67;70.49
11499;BME280;5806;48.748;9.278;2023-03-20T04:45:07;101395.29;;;9.64;69.91
11499;BME280;5806;48.748;9.278;2023-03-20T04:47:35;101395.38;;;9.67;70.45
11499;BME280;5806;48.748;9.278;2023-03-20T04:50:02;101392.36;;;9.44;70.47
11499;BME280;5806;48.748;9.278;2023-03-20T04:52:30;101386.47;;;9.47;71.62
11499;BME280;5806;48.748;9.278;2023-03-20T04:54:57;101381.72;;;9.51;69.93
11499;BME280;5806;48.748;9.278;2023-03-20T04:57:25;101383.05;;;9.58;70.33
11499;BME280;5806;48.748;9.278;2023-03-20T04:59:53;101374.28;;;9.65;70.52
11499;BME280;5806;48.748;9.278;2023-03-20T05:02:21;101371.56;;;9.65;70.18
11499;BME280;5806;48.748;9.278;2023-03-20T05:04:49;101379.88;;;9.61;70.64
11499;BME280;5806;48.748;9.278;2023-03-20T05:07:16;101377.02;;;9.65;70.77
11499;BME280;5806;48.748;9.278;2023-03-20T05:09:44;101379.55;;;9.60;70.38
11499;BME280;5806;48.748;9.278;2023-03-20T05:12:11;101366.42;;;9.44;70.48
11499;BME280;5806;48.748;9.278;2023-03-20T05:14:39;101365.86;;;9.35;71.44
11499;BME280;5806;48.748;9.278;2023-03-20T05:17:06;101365.39;;;9.45;69.45
11499;BME280;5806;48.748;9.278;2023-03-20T05:19:34;101361.21;;;9.36;68.45
11499;BME280;5806;48.748;9.278;2023-03-20T05:22:02;101366.59;;;9.33;68.32
11499;BME280;5806;48.748;9.278;2023-03-20T05:24:29;101369.30;;;9.18;68.32
11499;BME280;5806;48.748;9.278;2023-03-20T05:26:57;101365.77;;;9.11;68.40
11499;BME280;5806;48.748;9.278;2023-03-20T05:29:25;101357.70;;;9.29;68.75
11499;BME280;5806;48.748;9.278;2023-03-20T05:31:52;101356.00;;;9.34;69.13
11499;BME280;5806;48.748;9.278;2023-03-20T05:34:20;101361.33;;;9.16;70.29
11499;BME280;5806;48.748;9.278;2023-03-20T05:36:48;101363.00;;;9.17;69.50
11499;BME280;5806;48.748;9.278;2023-03-20T05:39:15;101360.61;;;9.18;68.14
11499;BME280;5806;48.748;9.278;2023-03-20T05:41:43;101361.47;;;9.28;68.24
11499;BME280;5806;48.748;9.278;2023-03-20T05:44:10;101363.08;;;9.26;67.91
11499;BME280;5806;48.748;9.278;2023-03-20T05:46:38;101359.89;;;9.29;68.64
11499;BME280;5806;48.748;9.278;2023-03-20T05:49:05;101370.12;;;9.25;68.50
11499;BME280;5806;48.748;9.278;2023-03-20T05:51:32;101378.55;;;9.17;68.66
11499;BME280;5806;48.748;9.278;2023-03-20T05:54:00;101387.44;;;9.21;68.31
11499;BME280;5806;48.748;9.278;2023-03-20T05:56:28;101381.02;;;9.03;68.97
11499;BME280;5806;48.748;9.278;2023-03-20T05:58:55;101389.59;;;9.13;68.91
11499;BME280;5806;48.748;9.278;2023-03-20T06:01:23;101395.60;;;9.06;69.38
11499;BME280;5806;48.748;9.278;2023-03-20T06:03:50;101384.69;;;9.06;69.70
11499;BME280;5806;48.748;9.278;2023-03-20T06:06:18;101394.41;;;9.11;69.83
11499;BME280;5806;48.748;9.278;2023-03-20T06:08:45;101390.63;;;9.12;69.96
11499;BME280;5806;48.748;9.278;2023-03-20T06:11:13;101386.59;;;8.99;69.52
11499;BME280;5806;48.748;9.278;2023-03-20T06:13:41;101384.66;;;9.12;69.87
11499;BME280;5806;48.748;9.278;2023-03-20T06:16:08;101386.11;;;9.15;68.92
11499;BME280;5806;48.748;9.278;2023-03-20T06:18:36;101392.11;;;9.14;68.78
11499;BME280;5806;48.748;9.278;2023-03-20T06:21:04;101387.14;;;8.98;70.39
11499;BME280;5806;48.748;9.278;2023-03-20T06:23:32;101378.95;;;8.98;70.43
11499;BME280;5806;48.748;9.278;2023-03-20T06:25:59;101390.14;;;9.06;69.34
11499;BME280;5806;48.748;9.278;2023-03-20T06:28:26;101382.77;;;9.13;69.31
11499;BME280;5806;48.748;9.278;2023-03-20T06:30:54;101385.59;;;9.15;70.00
11499;BME280;5806;48.748;9.278;2023-03-20T06:33:22;101380.13;;;9.15;68.69
11499;BME280;5806;48.748;9.278;2023-03-20T06:35:49;101384.70;;;9.21;69.31
11499;BME280;5806;48.748;9.278;2023-03-20T06:38:18;101382.89;;;9.09;68.68
11499;BME280;5806;48.748;9.278;2023-03-20T06:40:45;101383.43;;;9.24;68.75
11499;BME280;5806;48.748;9.278;2023-03-20T06:43:13;101379.97;;;9.26;69.53
11499;BME280;5806;48.748;9.278;2023-03-20T06:45:40;101382.33;;;9.38;68.87
11499;BME280;5806;48.748;9.278;2023-03-20T06:48:08;101388.39;;;9.40;69.12
11499;BME280;5806;48.748;9.278;2023-03-20T06:50:36;101384.62;;;9.41;68.68
11499;BME280;5806;48.748;9.278;2023-03-20T06:53:04;101383.78;;;9.40;68.91
11499;BME280;5806;48.748;9.278;2023-03-20T06:55:32;101390.00;;;9.38;68.36
11499;BME280;5806;48.748;9.278;2023-03-20T06:57:59;101384.54;;;9.38;68.61
11499;BME280;5806;48.748;9.278;2023-03-20T07:00:26;101390.52;;;9.53;68.05
11499;BME280;5806;48.748;9.278;2023-03-20T07:02:54;101395.03;;;9.35;68.85
11499;BME280;5806;48.748;9.278;2023-03-20T07:05:22;101395.89;;;9.35;69.19
11499;BME280;5806;48.748;9.278;2023-03-20T07:07:49;101399.17;;;9.28;68.99
11499;BME280;5806;48.748;9.278;2023-03-20T07:10:17;101403.91;;;9.24;68.37
11499;BME280;5806;48.748;9.278;2023-03-20T07:12:45;101408.13;;;9.42;68.62
11499;BME280;5806;48.748;9.278;2023-03-20T07:15:12;101419.23;;;9.47;68.72
11499;BME280;5806;48.748;9.278;2023-03-20T07:17:39;101424.61;;;9.44;69.43
11499;BME280;5806;48.748;9.278;2023-03-20T07:20:09;101431.27;;;9.55;69.54
11499;BME280;5806;48.748;9.278;2023-03-20T07:22:39;101436.52;;;9.56;68.37
11499;BME280;5806;48.748;9.278;2023-03-20T07:25:10;101445.78;;;9.71;67.73
11499;BME280;5806;48.748;9.278;2023-03-20T07:27:38;101447.40;;;9.63;68.14
11499;BME280;5806;48.748;9.278;2023-03-20T07:30:06;101450.26;;;9.59;68.17
11499;BME280;5806;48.748;9.278;2023-03-20T07:32:34;101458.41;;;9.65;67.78
11499;BME280;5806;48.748;9.278;2023-03-20T07:35:02;101446.41;;;9.73;67.90
11499;BME280;5806;48.748;9.278;2023-03-20T07:37:30;101448.11;;;9.98;67.61
11499;BME280;5806;48.748;9.278;2023-03-20T07:39:57;101457.34;;;9.66;66.05
11499;BME280;5806;48.748;9.278;2023-03-20T07:42:25;101445.03;;;10.04;65.68
11499;BME280;5806;48.748;9.278;2023-03-20T07:44:52;101452.48;;;9.90;65.40
11499;BME280;5806;48.748;9.278;2023-03-20T07:47:20;101452.69;;;9.73;65.47
11499;BME280;5806;48.748;9.278;2023-03-20T07:49:48;101450.05;;;9.60;64.96
11499;BME280;5806;48.748;9.278;2023-03-20T07:52:15;101455.47;;;9.82;65.04
11499;BME280;5806;48.748;9.278;2023-03-20T07:54:43;101456.96;;;9.78;65.31
11499;BME280;5806;48.748;9.278;2023-03-20T07:57:10;101456.23;;;9.80;63.88
11499;BME280;5806;48.748;9.278;2023-03-20T07:59:37;101461.36;;;9.64;63.93
11499;BME280;5806;48.748;9.278;2023-03-20T08:02:05;101455.59;;;9.85;64.35
11499;BME280;5806;48.748;9.278;2023-03-20T08:04:32;101466.38;;;9.89;64.44
11499;BME280;5806;48.748;9.278;2023-03-20T08:07:00;101462.38;;;9.91;62.69
11499;BME280;5806;48.748;9.278;2023-03-20T08:09:27;101461.30;;;9.92;63.72
11499;BME280;5806;48.748;9.278;2023-03-20T08:11:55;101462.72;;;9.86;62.86
11499;BME280;5806;48.748;9.278;2023-03-20T08:14:22;101471.30;;;9.89;61.45
11499;BME280;5806;48.748;9.278;2023-03-20T08:16:50;101475.10;;;9.88;62.76
11499;BME280;5806;48.748;9.278;2023-03-20T08:19:17;101473.61;;;9.70;61.93
11499;BME280;5806;48.748;9.278;2023-03-20T08:21:45;101469.42;;;9.90;61.72
11499;BME280;5806;48.748;9.278;2023-03-20T08:24:12;101478.56;;;9.86;60.90
11499;BME280;5806;48.748;9.278;2023-03-20T08:26:40;101485.65;;;9.78;61.55
11499;BME280;5806;48.748;9.278;2023-03-20T08:29:09;101482.52;;;9.97;61.96
11499;BME280;5806;48.748;9.278;2023-03-20T08:31:38;101487.73;;;9.98;63.50
11499;BME280;5806;48.748;9.278;2023-03-20T08:34:05;101478.94;;;9.96;60.86
11499;BME280;5806;48.748;9.278;2023-03-20T08:36:33;101488.25;;;9.82;60.95
11499;BME280;5806;48.748;9.278;2023-03-20T08:39:00;101484.87;;;9.71;60.50
11499;BME280;5806;48.748;9.278;2023-03-20T08:41:28;101485.13;;;10.01;61.41
11499;BME280;5806;48.748;9.278;2023-03-20T08:43:55;101481.92;;;10.04;60.80
11499;BME280;5806;48.748;9.278;2023-03-20T08:46:23;101476.69;;;10.09;61.76
11499;BME280;5806;48.748;9.278;2023-03-20T08:48:50;101484.58;;;10.01;60.54
11499;BME280;5806;48.748;9.278;2023-03-20T08:51:18;101483.66;;;10.05;60.64
11499;BME280;5806;48.748;9.278;2023-03-20T08:53:45;101489.73;;;10.07;59.86
11499;BME280;5806;48.748;9.278;2023-03-20T08:56:13;101486.12;;;10.13;59.85
11499;BME280;5806;48.748;9.278;2023-03-20T08:58:40;101486.89;;;10.20;59.92
11499;BME280;5806;48.748;9.278;2023-03-20T09:01:09;101486.08;;;10.20;59.82
11499;BME280;5806;48.748;9.278;2023-03-20T09:03:37;101488.09;;;10.15;59.12
11499;BME280;5806;48.748;9.278;2023-03-20T09:06:06;101486.81;;;10.18;58.67
11499;BME280;5806;48.748;9.278;2023-03-20T09:08:34;101488.81;;;10.20;58.79
11499;BME280;5806;48.748;9.278;2023-03-20T09:11:02;101491.63;;;10.22;60.08
11499;BME280;5806;48.748;9.278;2023-03-20T09:13:30;101493.92;;;10.25;59.69
11499;BME280;5806;48.748;9.278;2023-03-20T09:15:57;101491.02;;;10.29;58.27
11499;BME280;5806;48.748;9.278;2023-03-20T09:18:25;101498.71;;;9.92;57.92
11499;BME280;5806;48.748;9.278;2023-03-20T09:20:54;101489.62;;;10.20;58.30
11499;BME280;5806;48.748;9.278;2023-03-20T09:23:22;101493.39;;;10.10;57.66
11499;BME280;5806;48.748;9.278;2023-03-20T09:25:49;101487.91;;;10.26;57.88
11499;BME280;5806;48.748;9.278;2023-03-20T09:28:17;101486.42;;;10.14;58.09
11499;BME280;5806;48.748;9.278;2023-03-20T09:30:45;101488.81;;;10.20;57.72
11499;BME280;5806;48.748;9.278;2023-03-20T09:33:12;101495.09;;;10.20;59.51
11499;BME280;5806;48.748;9.278;2023-03-20T09:35:40;101486.48;;;10.08;58.32
11499;BME280;5806;48.748;9.278;2023-03-20T09:38:07;101486.62;;;10.28;58.55
11499;BME280;5806;48.748;9.278;2023-03-20T09:40:55;101483.83;;;10.10;57.96
11499;BME280;5806;48.748;9.278;2023-03-20T09:46:25;101491.58;;;10.29;58.85
11499;BME280;5806;48.748;9.278;2023-03-20T09:49:44;101489.58;;;10.27;58.66
11499;BME280;5806;48.748;9.278;2023-03-20T09:54:17;101493.30;;;10.23;57.16
11499;BME280;5806;48.748;9.278;2023-03-20T09:56:40;101490.04;;;10.24;57.83
11499;BME280;5806;48.748;9.278;2023-03-20T09:59:10;101488.73;;;10.17;57.80
11499;BME280;5806;48.748;9.278;2023-03-20T10:01:49;101493.19;;;10.36;57.59
11499;BME280;5806;48.748;9.278;2023-03-20T10:04:17;101490.80;;;10.31;58.05
11499;BME280;5806;48.748;9.278;2023-03-20T10:06:45;101482.27;;;10.45;57.65
11499;BME280;5806;48.748;9.278;2023-03-20T10:09:20;101489.88;;;10.43;57.35
11499;BME280;5806;48.748;9.278;2023-03-20T10:18:25;101476.24;;;10.61;57.53
11499;BME280;5806;48.748;9.278;2023-03-20T10:21:09;101476.24;;;10.61;56.06
11499;BME280;5806;48.748;9.278;2023-03-20T10:23:47;101472.55;;;10.65;55.57
11499;BME280;5806;48.748;9.278;2023-03-20T10:26:16;101478.12;;;10.85;54.50
11499;BME280;5806;48.748;9.278;2023-03-20T10:28:58;101477.03;;;10.68;54.39
11499;BME280;5806;48.748;9.278;2023-03-20T10:31:44;101473.98;;;10.58;53.67
11499;BME280;5806;48.748;9.278;2023-03-20T10:37:11;101494.30;;;10.53;53.46
11499;BME280;5806;48.748;9.278;2023-03-20T10:39:42;101487.16;;;10.52;53.41
11499;BME280;5806;48.748;9.278;2023-03-20T10:42:13;101481.66;;;10.34;53.40
11499;BME280;5806;48.748;9.278;2023-03-20T10:44:43;101483.47;;;10.56;54.40
11499;BME280;5806;48.748;9.278;2023-03-20T10:47:13;101478.16;;;10.61;53.65
11499;BME280;5806;48.748;9.278;2023-03-20T10:50:04;101480.19;;;10.56;53.69
11499;BME280;5806;48.748;9.278;2023-03-20T10:52:31;101478.84;;;10.65;54.54
11499;BME280;5806;48.748;9.278;2023-03-20T10:55:00;101483.12;;;10.46;51.33
11499;BME280;5806;48.748;9.278;2023-03-20T10:57:30;101478.09;;;10.67;50.93
11499;BME280;5806;48.748;9.278;2023-03-20T10:59:59;101470.17;;;10.59;50.53
11499;BME280;5806;48.748;9.278;2023-03-20T11:02:30;101467.89;;;10.65;51.35
11499;BME280;5806;48.748;9.278;2023-03-20T11:08:11;101465.78;;;10.43;48.28
11499;BME280;5806;48.748;9.278;2023-03-20T11:10:41;101468.59;;;10.70;49.94
11499;BME280;5806;48.748;9.278;2023-03-20T11:15:48;101464.28;;;10.47;47.62
11499;BME280;5806;48.748;9.278;2023-03-20T11:18:17;101459.81;;;10.52;48.32
11499;BME280;5806;48.748;9.278;2023-03-20T11:20:55;101461.12;;;10.59;48.51
11499;BME280;5806;48.748;9.278;2023-03-20T11:23:23;101464.56;;;10.63;49.76
11499;BME280;5806;48.748;9.278;2023-03-20T11:31:15;101464.50;;;10.79;51.38
11499;BME280;5806;48.748;9.278;2023-03-20T11:33:45;101462.47;;;10.50;50.79
11499;BME280;5806;48.748;9.278;2023-03-20T11:36:25;101453.69;;;10.66;50.53
11499;BME280;5806;48.748;9.278;2023-03-20T11:38:57;101443.04;;;10.58;49.93
11499;BME280;5806;48.748;9.278;2023-03-20T11:41:25;101447.48;;;10.43;49.57
11499;BME280;5806;48.748;9.278;2023-03-20T11:43:53;101446.69;;;10.52;49.74
11499;BME280;5806;48.748;9.278;2023-03-20T11:46:22;101447.06;;;10.55;49.74
11499;BME280;5806;48.748;9.278;2023-03-20T11:49:03;101446.98;;;10.53;49.74
11499;BME280;5806;48.748;9.278;2023-03-20T11:51:31;101444.11;;;10.32;49.86
11499;BME280;5806;48.748;9.278;2023-03-20T11:54:02;101433.05;;;10.45;50.40
11499;BME280;5806;48.748;9.278;2023-03-20T11:56:34;101431.50;;;10.56;50.37
11499;BME280;5806;48.748;9.278;2023-03-20T11:59:13;101435.05;;;10.56;51.21
11499;BME280;5806;48.748;9.278;2023-03-20T12:01:54;101441.16;;;10.58;51.33
11499;BME280;5806;48.748;9.278;2023-03-20T12:04:26;101431.59;;;10.67;50.43
11499;BME280;5806;48.748;9.278;2023-03-20T12:07:00;101436.91;;;10.62;50.83
11499;BME280;5806;48.748;9.278;2023-03-20T12:09:36;101428.84;;;10.58;51.56
11499;BME280;5806;48.748;9.278;2023-03-20T12:12:26;101439.02;;;10.60;50.64
11499;BME280;5806;48.748;9.278;2023-03-20T12:14:58;101430.88;;;10.54;49.71
11499;BME280;5806;48.748;9.278;2023-03-20T12:17:52;101429.06;;;10.57;49.45
11499;BME280;5806;48.748;9.278;2023-03-20T12:20:23;101434.34;;;10.43;48.45
11499;BME280;5806;48.748;9.278;2023-03-20T12:25:23;101426.19;;;10.70;50.06
11499;BME280;5806;48.748;9.278;2023-03-20T12:28:04;101428.48;;;10.73;50.33
11499;BME280;5806;48.748;9.278;2023-03-20T12:30:44;101421.23;;;10.69;50.53
11499;BME280;5806;48.748;9.278;2023-03-20T12:33:14;101423.02;;;10.73;50.66
11499;BME280;5806;48.748;9.278;2023-03-20T12:35:40;101426.89;;;10.74;51.34
11499;BME280;5806;48.748;9.278;2023-03-20T12:38:30;101415.73;;;10.76;51.25
11499;BME280;5806;48.748;9.278;2023-03-20T12:41:12;101418.98;;;10.75;51.30
11499;BME280;5806;48.748;9.278;2023-03-20T12:49:23;101406.59;;;10.64;51.90
11499;BME280;5806;48.748;9.278;2023-03-20T12:52:02;101414.47;;;10.63;51.43
11499;BME280;5806;48.748;9.278;2023-03-20T12:54:36;101408.46;;;10.21;52.52
11499;BME280;5806;48.748;9.278;2023-03-20T12:57:18;101412.92;;;10.40;52.86
11499;BME280;5806;48.748;9.278;2023-03-20T13:02:33;101403.29;;;10.46;52.97
11499;BME280;5806;48.748;9.278;2023-03-20T13:10:51;101399.68;;;10.70;55.06
11499;BME280;5806;48.748;9.278;2023-03-20T13:13:25;101402.27;;;10.74;55.28
11499;BME280;5806;48.748;9.278;2023-03-20T13:16:09;101399.64;;;10.61;55.70
11499;BME280;5806;48.748;9.278;2023-03-20T13:18:44;101394.28;;;10.82;54.99
11499;BME280;5806;48.748;9.278;2023-03-20T13:21:15;101392.62;;;10.72;55.27
11499;BME280;5806;48.748;9.278;2023-03-20T13:23:53;101395.30;;;10.45;55.01
11499;BME280;5806;48.748;9.278;2023-03-20T13:26:40;101390.28;;;10.42;55.65
11499;BME280;5806;48.748;9.278;2023-03-20T13:34:57;101380.61;;;10.64;54.59
11499;BME280;5806;48.748;9.278;2023-03-20T13:37:35;101385.47;;;10.89;54.26
11499;BME280;5806;48.748;9.278;2023-03-20T13:40:12;101377.19;;;10.86;54.64
11499;BME280;5806;48.748;9.278;2023-03-20T13:45:24;101376.26;;;10.92;54.55
11499;BME280;5806;48.748;9.278;2023-03-20T13:47:53;101376.48;;;10.91;55.25
11499;BME280;5806;48.748;9.278;2023-03-20T13:50:38;101372.91;;;10.63;54.19
11499;BME280;5806;48.748;9.278;2023-03-20T14:03:42;101358.77;;;10.93;54.08
11499;BME280;5806;48.748;9.278;2023-03-20T14:09:01;101342.74;;;10.97;53.73
11499;BME280;5806;48.748;9.278;2023-03-20T14:11:30;101337.17;;;11.03;54.10
11499;BME280;5806;48.748;9.278;2023-03-20T14:16:34;101333.18;;;10.88;54.09
11499;BME280;5806;48.748;9.278;2023-03-20T14:21:35;101344.84;;;11.13;52.85
11499;BME280;5806;48.748;9.278;2023-03-20T14:24:10;101344.55;;;11.03;54.05
11499;BME280;5806;48.748;9.278;2023-03-20T14:26:39;101350.64;;;11.05;54.78
11499;BME280;5806;48.748;9.278;2023-03-20T14:31:41;101353.88;;;11.22;54.09
11499;BME280;5806;48.748;9.278;2023-03-20T14:34:16;101347.62;;;11.24;54.93
11499;BME280;5806;48.748;9.278;2023-03-20T14:39:44;101345.89;;;11.12;53.08
11499;BME280;5806;48.748;9.278;2023-03-20T14:48:01;101338.50;;;11.21;52.71
11499;BME280;5806;48.748;9.278;2023-03-20T14:50:39;101343.31;;;11.17;52.75
11499;BME280;5806;48.748;9.278;2023-03-20T14:53:19;101339.05;;;11.21;52.80
11499;BME280;5806;48.748;9.278;2023-03-20T15:04:04;101318.84;;;11.13;54.54
11499;BME280;5806;48.748;9.278;2023-03-20T15:06:31;101317.97;;;11.30;54.33
11499;BME280;5806;48.748;9.278;2023-03-20T15:09:04;101310.44;;;11.26;54.77
11499;BME280;5806;48.748;9.278;2023-03-20T15:11:30;101319.03;;;11.20;54.95
11499;BME280;5806;48.748;9.278;2023-03-20T15:14:01;101314.50;;;11.05;54.29
11499;BME280;5806;48.748;9.278;2023-03-20T15:16:32;101310.62;;;11.04;54.63
11499;BME280;5806;48.748;9.278;2023-03-20T15:19:00;101316.97;;;10.95;55.17
11499;BME280;5806;48.748;9.278;2023-03-20T15:21:32;101316.09;;;11.04;56.41